Terminal Aerodrome Forecast
Issued by NWS

Home | Current Version | Previous Version | Graphics & Text | Print | Product List | Glossary On
Versions: 1 2 3 4 5 6 7 8 9 10 11 12 13 14 15 16 17 18
696
FTUS42 KMHX 041003 AAA
TAFPGV
TAF AMD
KPGV 041003Z 0410/0506 21008KT 6SM -RA SCT007 OVC070
     FM041200 30008KT 4SM -RA OVC007
     FM041600 03009G15KT 3SM -RA OVC007
     FM050000 04007KT 2SM -RA BR OVC005
      AMD LTD TO CLD VIS AND WIND=

USA.gov is the U.S. government's official web portal to all federal, state and local government web resources and services.